createdAt,value
2023-02-09T02:47:02.387Z,102377.75
2023-02-09T02:49:37.120Z,102367.34
2023-02-09T02:52:08.483Z,102369.09
2023-02-09T02:54:41.056Z,102369.94
2023-02-09T02:57:14.477Z,102365.69
2023-02-09T02:59:47.251Z,102357.06
2023-02-09T03:02:21.070Z,102357.03
2023-02-09T03:04:52.930Z,102349.25
2023-02-09T03:07:21.267Z,102357.25
2023-02-09T03:09:50.629Z,102353.81
2023-02-09T03:12:30.017Z,102353.81
2023-02-09T03:15:15.181Z,102356.44
2023-02-09T03:17:49.205Z,102352.94
2023-02-09T03:20:27.600Z,102338.06
2023-02-09T03:23:02.469Z,102343.44
2023-02-09T03:25:35.944Z,102342.59
2023-02-09T03:28:09.300Z,102333.78
2023-02-09T03:30:42.129Z,102331.16
2023-02-09T03:33:21.579Z,102337.19
2023-02-09T03:35:52.727Z,102339.00
2023-02-09T03:38:20.833Z,102335.53
2023-02-09T03:40:48.830Z,102335.53
2023-02-09T03:43:17.350Z,102339.03
2023-02-09T03:45:45.380Z,102340.00
2023-02-09T03:48:13.462Z,102338.16
2023-02-09T03:50:43.329Z,102337.41
2023-02-09T03:53:11.625Z,102338.16
2023-02-09T03:55:39.720Z,102327.84
2023-02-09T03:58:08.061Z,102316.50
2023-02-09T04:00:36.260Z,102308.66
2023-02-09T04:03:04.933Z,102312.16
2023-02-09T04:05:33.020Z,102306.91
2023-02-09T04:08:02.714Z,102307.78
2023-02-09T04:10:31.043Z,102312.81
2023-02-09T04:12:59.021Z,102309.41
2023-02-09T04:15:27.106Z,102306.91
2023-02-09T04:17:55.628Z,102303.44
2023-02-09T04:20:23.625Z,102303.44
2023-02-09T04:22:51.577Z,102301.72
2023-02-09T04:25:21.371Z,102298.16
2023-02-09T04:27:49.425Z,102297.22
2023-02-09T04:30:18.175Z,102298.22
2023-02-09T04:32:46.560Z,102305.19
2023-02-09T04:35:14.774Z,102298.13
2023-02-09T04:37:43.230Z,102299.88
2023-02-09T04:40:15.916Z,102307.87
2023-02-09T04:42:51.207Z,102297.22
2023-02-09T04:45:23.405Z,102299.97
2023-02-09T04:47:52.714Z,102295.56
2023-02-09T04:50:22.704Z,102299.00
2023-02-09T04:53:12.276Z,102296.41
2023-02-09T04:55:49.343Z,102302.59
2023-02-09T04:58:40.800Z,102306.78
2023-02-09T05:01:10.343Z,102296.34
2023-02-09T05:03:38.553Z,102300.72
2023-02-09T05:06:07.729Z,102297.34
2023-02-09T05:08:36.077Z,102290.25
2023-02-09T05:11:04.272Z,102300.81
2023-02-09T05:13:33.580Z,102292.13
2023-02-09T05:16:06.653Z,102293.88
2023-02-09T05:18:34.892Z,102296.50
2023-02-09T05:21:03.156Z,102296.50
2023-02-09T05:23:31.267Z,102292.97
2023-02-09T05:25:59.367Z,102284.28
2023-02-09T05:28:27.819Z,102282.56
2023-02-09T05:30:57.261Z,102289.47
2023-02-09T05:33:26.776Z,102285.25
2023-02-09T05:35:56.688Z,102289.53
2023-02-09T05:38:25.085Z,102292.25
2023-02-09T05:40:53.174Z,102286.09
2023-02-09T05:43:21.549Z,102293.09
2023-02-09T05:45:49.524Z,102295.75
2023-02-09T05:48:18.939Z,102298.34
2023-02-09T05:50:49.062Z,102293.09
2023-02-09T05:53:17.152Z,102295.72
2023-02-09T05:55:45.326Z,102298.25
2023-02-09T05:58:13.936Z,102296.50
2023-02-09T06:00:41.996Z,102299.97
2023-02-09T06:03:10.344Z,102292.13
2023-02-09T06:05:39.847Z,102297.38
2023-02-09T06:08:07.891Z,102293.84
2023-02-09T06:10:36.722Z,102294.69
2023-02-09T06:13:05.605Z,102295.53
2023-02-09T06:15:34.060Z,102300.75
2023-02-09T06:18:02.616Z,102311.84
2023-02-09T06:20:33.163Z,102309.97
2023-02-09T06:23:03.055Z,102310.03
2023-02-09T06:25:33.951Z,102309.97
2023-02-09T06:28:02.754Z,102313.44
2023-02-09T06:30:32.831Z,102309.94
2023-02-09T06:33:10.093Z,102309.06
2023-02-09T06:35:39.517Z,102311.66
2023-02-09T06:38:09.229Z,102308.22
2023-02-09T06:40:37.719Z,102311.72
2023-02-09T07:17:14.235Z,102298.22
2023-02-09T07:19:42.571Z,102303.56
2023-02-09T07:22:10.650Z,102293.25
2023-02-09T07:24:38.838Z,102293.19
2023-02-09T07:27:07.940Z,102292.41
2023-02-09T07:29:36.044Z,102300.34
2023-02-09T07:32:04.125Z,102298.66
2023-02-09T07:34:34.137Z,102292.59
2023-02-09T07:37:02.696Z,102288.28
2023-02-09T07:39:31.437Z,102277.97
2023-02-09T07:42:00.221Z,102281.41
2023-02-09T07:44:34.847Z,102278.03
2023-02-09T07:47:03.105Z,102286.81
2023-02-09T07:49:31.073Z,102294.75
2023-02-09T07:52:00.458Z,102293.88
2023-02-09T07:54:28.857Z,102290.53
2023-02-09T07:56:57.350Z,102290.56
2023-02-09T07:59:25.428Z,102293.19
2023-02-09T08:01:53.857Z,102300.25
2023-02-09T08:04:24.030Z,102304.66
2023-02-09T08:06:53.268Z,102311.69
2023-02-09T08:09:22.650Z,102307.38
2023-02-09T08:11:56.186Z,102310.00
2023-02-09T08:14:29.069Z,102304.81
2023-02-09T08:17:16.122Z,102306.56
2023-02-09T08:19:45.061Z,102306.56
2023-02-09T08:22:13.485Z,102312.69
2023-02-09T08:24:43.014Z,102316.19
2023-02-09T08:27:11.704Z,102313.59
2023-02-09T08:29:40.314Z,102307.50
2023-02-09T08:32:08.657Z,102304.91
2023-02-09T08:34:36.863Z,102298.75
2023-02-09T08:37:05.271Z,102301.37
2023-02-09T08:39:33.435Z,102294.41
2023-02-09T08:42:02.857Z,102290.03
2023-02-09T08:44:31.441Z,102288.28
2023-02-09T08:47:00.914Z,102287.41
2023-02-09T08:49:28.948Z,102287.41
2023-02-09T08:51:57.304Z,102286.53
2023-02-09T08:54:25.494Z,102289.12
2023-02-09T08:56:53.440Z,102289.09
2023-02-09T08:59:23.416Z,102282.03
2023-02-09T09:01:51.339Z,102281.19
2023-02-09T09:04:21.203Z,102277.66
2023-02-09T09:06:49.466Z,102273.28
2023-02-09T09:09:17.412Z,102281.13
2023-02-09T09:11:45.491Z,102279.31
2023-02-09T09:14:13.795Z,102278.47
2023-02-09T09:16:43.313Z,102274.94
2023-02-09T09:19:11.309Z,102273.13
2023-02-09T09:21:39.547Z,102271.38
2023-02-09T09:24:07.613Z,102265.25
2023-02-09T09:26:36.162Z,102260.00
2023-02-09T09:29:04.477Z,102252.97
2023-02-09T09:31:33.565Z,102243.28
2023-02-09T09:34:03.057Z,102239.81
2023-02-09T09:36:31.330Z,102227.53
2023-02-09T09:38:59.405Z,102221.38
2023-02-09T09:41:32.791Z,102215.16
2023-02-09T09:44:02.438Z,102217.72
2023-02-09T09:46:36.870Z,102231.25
2023-02-09T09:49:07.127Z,102239.87
2023-02-09T09:51:40.353Z,102246.00
2023-02-09T09:54:15.464Z,102249.38
2023-02-09T09:56:43.629Z,102247.59
2023-02-09T09:59:17.756Z,102251.56
2023-02-09T10:01:46.189Z,102267.31
2023-02-09T10:04:16.915Z,102266.19
2023-02-09T10:06:47.298Z,102269.72
2023-02-09T10:09:26.127Z,102269.47
2023-02-09T10:11:59.893Z,102280.78
2023-02-09T10:14:28.822Z,102280.53
2023-02-09T10:16:56.944Z,102271.47
2023-02-09T10:19:27.528Z,102263.69
2023-02-09T10:21:56.241Z,102261.97
2023-02-09T10:24:26.438Z,102249.63
2023-02-09T10:27:25.423Z,102241.50
2023-02-09T10:29:53.822Z,102227.69
2023-02-09T10:32:24.184Z,102227.38
2023-02-09T10:34:56.859Z,102221.06
2023-02-09T10:37:30.573Z,102208.00
2023-02-09T10:40:09.949Z,102213.84
2023-02-09T10:42:40.848Z,102218.03
2023-02-09T10:45:17.207Z,102228.22
2023-02-09T10:47:58.743Z,102222.72
2023-02-09T10:50:28.352Z,102225.84
2023-02-09T10:53:00.224Z,102213.37
2023-02-09T10:55:35.370Z,102214.75
2023-02-09T10:58:22.410Z,102213.16
2023-02-09T11:00:54.561Z,102212.81
2023-02-09T11:03:26.012Z,102196.44
2023-02-09T11:06:04.349Z,102194.22
2023-02-09T11:08:41.523Z,102183.25
2023-02-09T11:11:21.357Z,102167.50
2023-02-09T11:13:49.566Z,102146.88
2023-02-09T11:16:45.379Z,102138.31
2023-02-09T11:19:25.949Z,102137.75
2023-02-09T11:22:03.620Z,102139.00
2023-02-09T11:24:47.831Z,102127.94
2023-02-09T11:27:29.933Z,102123.16
2023-02-09T11:30:12.354Z,102130.56
2023-02-09T11:32:47.370Z,102130.78
2023-02-09T11:35:19.765Z,102132.91
2023-02-09T11:37:57.549Z,102129.97
2023-02-09T11:40:32.506Z,102127.56
2023-02-09T11:43:11.332Z,102116.97
2023-02-09T11:45:44.929Z,102120.88
2023-02-09T11:48:18.833Z,102116.56
2023-02-09T11:50:57.992Z,102127.44
2023-02-09T11:53:34.439Z,102138.53
2023-02-09T11:56:05.400Z,102139.00
2023-02-09T11:58:43.806Z,102137.63
2023-02-09T12:01:21.675Z,102129.44
2023-02-09T12:04:02.460Z,102139.13
2023-02-09T12:06:38.538Z,102132.53
2023-02-09T12:09:20.816Z,102133.41
2023-02-09T12:11:58.489Z,102133.12
2023-02-09T12:14:57.885Z,102130.72
2023-02-09T12:17:31.379Z,102140.56
2023-02-09T12:20:01.316Z,102135.13
2023-02-09T12:22:49.664Z,102132.06
2023-02-09T12:25:50.245Z,102133.69
2023-02-09T12:28:39.862Z,102132.50
2023-02-09T12:31:12.215Z,102130.31
2023-02-09T12:34:01.345Z,102128.37
2023-02-09T12:36:31.666Z,102119.09
2023-02-09T12:39:06.199Z,102112.81
2023-02-09T12:42:07.842Z,102106.75
2023-02-09T12:44:55.593Z,102102.66
2023-02-09T12:47:47.426Z,102113.00
2023-02-09T12:50:45.375Z,102111.37
2023-02-09T12:53:34.634Z,102117.44
2023-02-09T12:56:06.067Z,102116.16
2023-02-09T12:58:55.043Z,102123.94
2023-02-09T13:02:03.344Z,102131.53
2023-02-09T13:04:35.646Z,102129.50
2023-02-09T13:08:13.644Z,102120.84
2023-02-09T13:10:45.040Z,102120.84
2023-02-09T13:13:20.422Z,102123.22
2023-02-09T13:16:09.660Z,102118.47
2023-02-09T13:18:47.351Z,102113.66
2023-02-09T13:21:21.525Z,102112.09
2023-02-09T13:24:03.456Z,102102.84
2023-02-09T13:26:33.584Z,102104.34
2023-02-09T13:29:20.921Z,102107.41
2023-02-09T13:32:00.338Z,102095.41
2023-02-09T13:34:35.791Z,102095.00
2023-02-09T13:37:16.224Z,102105.59
2023-02-09T13:39:45.832Z,102107.03
2023-02-09T13:42:20.639Z,102120.34
2023-02-09T13:44:51.651Z,102124.97
2023-02-09T13:47:20.213Z,102120.69
2023-02-09T13:50:00.030Z,102121.87
2023-02-09T13:52:35.289Z,102115.72
2023-02-09T13:55:17.083Z,102118.09
2023-02-09T13:57:48.000Z,102118.78
2023-02-09T14:00:25.509Z,102111.87
2023-02-09T14:02:57.256Z,102113.38
2023-02-09T14:05:33.211Z,102108.03
2023-02-09T14:08:02.114Z,102110.69
2023-02-09T14:10:34.291Z,102113.00
2023-02-09T14:13:05.767Z,102109.66
2023-02-09T14:15:55.923Z,102115.44
2023-02-09T14:18:30.930Z,102105.94
2023-02-09T14:21:01.254Z,102097.75
2023-02-09T14:23:32.917Z,102110.78
2023-02-09T14:26:06.627Z,102105.84
2023-02-09T14:28:37.512Z,102104.16
2023-02-09T14:31:07.295Z,102112.31
2023-02-09T14:33:38.521Z,102113.75
2023-02-09T14:36:07.639Z,102103.59
2023-02-09T14:38:38.479Z,102098.34
2023-02-09T14:41:28.906Z,102106.75
2023-02-09T14:44:01.971Z,102117.03
2023-02-09T14:46:46.591Z,102120.88
2023-02-09T14:49:14.597Z,102118.69
2023-02-09T14:51:43.191Z,102113.44
2023-02-09T14:54:22.331Z,102100.91
2023-02-09T14:56:53.185Z,102094.06
2023-02-09T14:59:22.336Z,102079.09
2023-02-09T15:01:52.933Z,102080.97
2023-02-09T15:04:21.490Z,102085.69
2023-02-09T15:07:02.346Z,102083.00
2023-02-09T15:09:36.486Z,102094.63
2023-02-09T15:12:06.876Z,102094.66
2023-02-09T15:14:41.836Z,102099.13
2023-02-09T15:17:13.493Z,102087.97
2023-02-09T15:19:42.483Z,102099.59
2023-02-09T15:22:13.572Z,102103.22
2023-02-09T15:24:43.493Z,102103.53
2023-02-09T15:27:23.915Z,102100.09
2023-02-09T15:29:52.971Z,102102.00
2023-02-09T15:32:23.922Z,102089.00
2023-02-09T15:34:53.229Z,102084.78
2023-02-09T15:37:24.365Z,102084.00
2023-02-09T15:39:56.536Z,102079.88
2023-02-09T15:42:43.653Z,102083.75
2023-02-09T15:45:36.288Z,102085.59
2023-02-09T15:48:04.820Z,102070.03
2023-02-09T15:50:53.658Z,102078.91
2023-02-09T15:53:22.130Z,102080.84
2023-02-09T15:55:50.435Z,102076.63
2023-02-09T15:58:23.024Z,102073.31
2023-02-09T16:00:51.558Z,102091.94
2023-02-09T16:03:21.705Z,102092.88
2023-02-09T16:05:51.905Z,102096.53
2023-02-09T16:08:23.566Z,102122.19
2023-02-09T16:10:52.457Z,102129.44
2023-02-09T16:13:22.176Z,102137.59
2023-02-09T16:15:50.605Z,102136.94
2023-02-09T16:18:18.741Z,102149.22
2023-02-09T16:20:50.822Z,102144.06
2023-02-09T16:23:22.461Z,102147.81
2023-02-09T16:25:52.948Z,102147.91
2023-02-09T16:28:23.004Z,102142.69
2023-02-09T16:30:53.717Z,102148.06
2023-02-09T16:33:22.872Z,102135.88
2023-02-09T16:35:54.152Z,102138.66
2023-02-09T16:38:24.328Z,102125.66
2023-02-09T16:40:53.583Z,102129.22
2023-02-09T16:43:24.283Z,102122.25
2023-02-09T16:46:02.883Z,102139.03
2023-02-09T16:48:34.406Z,102149.63
2023-02-09T16:51:03.349Z,102138.34
2023-02-09T16:53:33.858Z,102131.31
2023-02-09T16:56:03.816Z,102120.78
2023-02-09T16:58:33.449Z,102133.97
2023-02-09T17:01:01.561Z,102138.41
2023-02-09T17:03:34.381Z,102125.28
2023-02-09T17:06:03.390Z,102129.75
2023-02-09T17:08:32.934Z,102137.69
2023-02-09T17:11:02.219Z,102134.19
2023-02-09T17:13:32.166Z,102129.78
2023-02-09T17:16:03.983Z,102127.22
2023-02-09T17:18:35.267Z,102131.63
2023-02-09T17:21:05.273Z,102146.50
2023-02-09T17:23:35.443Z,102149.13
2023-02-09T17:26:03.661Z,102149.13
2023-02-09T17:28:31.928Z,102153.53
2023-02-09T17:31:04.114Z,102159.69
2023-02-09T17:33:34.234Z,102164.09
2023-02-09T17:36:25.131Z,102152.72
2023-02-09T17:38:52.900Z,102162.37
2023-02-09T17:41:23.530Z,102154.56
2023-02-09T17:43:53.668Z,102163.41
2023-02-09T17:46:23.435Z,102171.34
2023-02-09T17:48:51.379Z,102173.09
2023-02-09T17:51:21.882Z,102173.97
2023-02-09T17:53:50.660Z,102171.41
2023-02-09T17:56:19.365Z,102167.88
2023-02-09T17:58:48.274Z,102173.16
2023-02-09T18:01:27.054Z,102172.31
2023-02-09T18:03:56.537Z,102174.94
2023-02-09T18:06:33.657Z,102170.59
2023-02-09T18:09:02.769Z,102174.09
2023-02-09T18:11:56.550Z,102171.47
2023-02-09T18:14:26.566Z,102171.47
2023-02-09T18:16:56.195Z,102174.94
2023-02-09T18:19:25.859Z,102173.19
2023-02-09T18:21:55.719Z,102171.47
2023-02-09T18:24:25.674Z,102167.97
2023-02-09T18:26:53.991Z,102166.19
2023-02-09T18:29:26.238Z,102170.59
2023-02-09T18:31:56.181Z,102165.34
2023-02-09T18:34:24.331Z,102174.94
2023-02-09T18:36:52.535Z,102173.19
2023-02-09T18:39:20.750Z,102180.19
2023-02-09T18:41:54.468Z,102171.44
2023-02-09T18:44:28.885Z,102176.72
2023-02-09T18:47:02.017Z,102166.19
2023-02-09T18:49:30.849Z,102153.94
2023-02-09T18:52:01.593Z,102171.53
2023-02-09T18:54:31.214Z,102176.78
2023-02-09T18:56:59.575Z,102176.78
2023-02-09T18:59:31.785Z,102176.78
2023-02-09T19:02:01.509Z,102180.25
2023-02-09T19:04:29.936Z,102174.16
2023-02-09T19:06:58.009Z,102180.31
2023-02-09T19:09:26.230Z,102175.06
2023-02-09T19:11:54.212Z,102169.84
2023-02-09T19:14:40.277Z,102171.59
2023-02-09T19:17:12.622Z,102177.75
2023-02-09T19:19:40.578Z,102180.38
2023-02-09T19:22:09.654Z,102188.28
2023-02-09T19:24:37.689Z,102190.91
2023-02-09T19:27:09.225Z,102185.69
2023-02-09T19:29:38.646Z,102171.75
2023-02-09T19:32:06.747Z,102164.72
2023-02-09T19:34:40.230Z,102171.72
2023-02-09T19:37:09.039Z,102176.13
2023-02-09T19:39:38.775Z,102170.00
2023-02-09T19:42:07.316Z,102171.75
2023-02-09T19:44:36.240Z,102164.75
2023-02-09T19:47:04.361Z,102168.22
2023-02-09T19:49:34.305Z,102162.09
2023-02-09T19:52:04.126Z,102169.16
2023-02-09T19:54:32.812Z,102171.75
2023-02-09T19:57:00.904Z,102167.41
2023-02-09T19:59:29.662Z,102169.13
2023-02-09T20:01:58.626Z,102171.75
2023-02-09T20:04:26.992Z,102173.53
2023-02-09T20:06:54.962Z,102172.63
2023-02-09T20:09:24.275Z,102176.13
2023-02-09T20:11:52.701Z,102174.38
2023-02-09T20:14:21.392Z,102171.75
2023-02-09T20:16:49.491Z,102172.63
2023-02-09T20:19:17.913Z,102171.75
2023-02-09T20:21:46.286Z,102162.16
2023-02-09T20:24:15.477Z,102163.03
2023-02-09T20:26:46.778Z,102151.66
2023-02-09T20:29:16.781Z,102157.81
2023-02-09T20:31:45.345Z,102164.81
2023-02-09T20:34:15.118Z,102171.81
2023-02-09T20:36:45.611Z,102170.94
2023-02-09T20:39:16.306Z,102165.69
2023-02-09T20:42:06.512Z,102177.91
2023-02-09T20:44:53.349Z,102177.91
2023-02-09T20:47:21.402Z,102179.69
2023-02-09T20:49:49.927Z,102173.56
2023-02-09T20:52:18.311Z,102172.69
2023-02-09T20:54:46.861Z,102163.97
2023-02-09T20:57:16.506Z,102166.59
2023-02-09T20:59:44.567Z,102170.13
2023-02-09T21:02:13.098Z,102165.72
2023-02-09T21:04:41.833Z,102175.34
2023-02-09T21:07:10.105Z,102173.63
2023-02-09T21:09:39.486Z,102171.88
2023-02-09T21:12:07.878Z,102177.16
2023-02-09T21:14:42.133Z,102173.66
2023-02-09T21:17:11.628Z,102173.66
2023-02-09T21:19:39.730Z,102178.91
2023-02-09T21:22:08.193Z,102178.94
2023-02-09T21:24:38.611Z,102185.94
2023-02-09T21:27:07.332Z,102182.44
2023-02-09T21:29:37.226Z,102184.19
2023-02-09T21:32:08.025Z,102180.72
2023-02-09T21:34:36.425Z,102185.97
2023-02-09T21:37:07.882Z,102194.72
2023-02-09T21:39:36.214Z,102196.47
2023-02-09T21:42:22.220Z,102192.09
2023-02-09T21:44:52.133Z,102191.22
2023-02-09T21:47:20.238Z,102187.72
2023-02-09T21:49:49.456Z,102179.88
2023-02-09T21:52:17.849Z,102184.25
2023-02-09T21:54:45.849Z,102187.72
2023-02-09T21:57:13.986Z,102187.72
2023-02-09T21:59:42.543Z,102191.25
2023-02-09T22:02:15.064Z,102185.16
2023-02-09T22:04:43.809Z,102188.63
2023-02-09T22:07:12.358Z,102195.66
2023-02-09T22:09:41.026Z,102193.06
2023-02-09T22:12:09.803Z,102207.91
2023-02-09T22:14:38.065Z,102207.91
2023-02-09T22:17:06.268Z,102209.66
2023-02-09T22:19:36.148Z,102218.41
2023-02-09T22:22:04.792Z,102223.66
2023-02-09T22:24:34.816Z,102219.25
2023-02-09T22:27:03.522Z,102215.78
2023-02-09T22:29:33.249Z,102221.03
2023-02-09T22:32:01.744Z,102216.66
2023-02-09T22:34:30.118Z,102219.28
2023-02-09T22:36:59.490Z,102217.53
2023-02-09T22:39:27.491Z,102226.28
2023-02-09T22:41:58.224Z,102223.66
2023-02-09T22:44:27.845Z,102224.53
2023-02-09T22:46:56.030Z,102228.88
2023-02-09T22:49:24.162Z,102238.50
2023-02-09T22:51:52.254Z,102235.00
2023-02-09T22:54:22.096Z,102241.13
2023-02-09T22:56:50.282Z,102238.50
2023-02-09T22:59:18.233Z,102237.63
2023-02-09T23:01:46.544Z,102240.25
2023-02-09T23:04:14.771Z,102236.75
2023-02-09T23:06:42.873Z,102239.38
2023-02-09T23:09:14.020Z,102235.88
2023-02-09T23:11:44.349Z,102238.50
2023-02-09T23:14:13.612Z,102239.38
2023-02-09T23:16:44.077Z,102239.34
2023-02-09T23:19:16.083Z,102241.97
2023-02-09T23:21:48.436Z,102243.72
2023-02-09T23:24:21.640Z,102245.47
2023-02-09T23:26:54.478Z,102251.59
2023-02-09T23:29:26.107Z,102248.97
2023-02-09T23:31:54.331Z,102253.34
2023-02-09T23:34:24.064Z,102260.34
2023-02-09T23:36:52.308Z,102259.47
2023-02-09T23:39:23.126Z,102259.44
2023-02-09T23:41:52.804Z,102262.97
2023-02-09T23:44:20.960Z,102251.59
2023-02-09T23:46:48.952Z,102250.75
2023-02-09T23:49:17.234Z,102250.72
2023-02-09T23:51:45.573Z,102254.22
2023-02-09T23:54:13.591Z,102265.59
2023-02-09T23:56:41.867Z,102256.81
2023-02-09T23:59:14.986Z,102263.81
